createdAt,value
2023-04-17T00:00:50.129Z,17.24
2023-04-17T00:01:50.246Z,17.23
2023-04-17T00:02:50.278Z,17.24
2023-04-17T00:03:50.306Z,17.23
2023-04-17T00:04:50.276Z,17.24
2023-04-17T00:05:50.230Z,17.23
2023-04-17T00:06:50.267Z,17.23
2023-04-17T00:07:50.277Z,17.24
2023-04-17T00:08:50.297Z,17.23
2023-04-17T00:09:50.325Z,17.23
2023-04-17T00:10:57.059Z,17.22
2023-04-17T00:11:51.375Z,17.23
2023-04-17T00:12:50.388Z,17.23
2023-04-17T00:13:50.414Z,17.23
2023-04-17T00:14:50.430Z,17.23
2023-04-17T00:15:50.459Z,17.23
2023-04-17T00:16:50.532Z,17.23
2023-04-17T00:17:50.510Z,17.22
2023-04-17T00:18:50.555Z,17.23
2023-04-17T00:19:50.525Z,17.22
2023-04-17T00:20:50.537Z,17.22
2023-04-17T00:21:50.585Z,17.22
2023-04-17T00:22:50.624Z,17.22
2023-04-17T00:23:50.634Z,17.22
2023-04-17T00:24:50.646Z,17.21
2023-04-17T00:25:50.667Z,17.22
2023-04-17T00:26:50.680Z,17.22
2023-04-17T00:27:50.705Z,17.21
2023-04-17T00:28:50.792Z,17.22
2023-04-17T00:29:50.753Z,17.21
2023-04-17T00:30:50.793Z,17.22
2023-04-17T00:31:50.804Z,17.21
2023-04-17T00:32:50.905Z,17.22
2023-04-17T00:33:50.834Z,17.21
2023-04-17T00:34:51.056Z,17.21
2023-04-17T00:35:50.917Z,17.21
2023-04-17T00:36:50.898Z,17.20
2023-04-17T00:37:50.924Z,17.21
2023-04-17T00:38:50.951Z,17.21
2023-04-17T00:39:50.977Z,17.20
2023-04-17T00:40:51.005Z,17.20
2023-04-17T00:41:51.012Z,17.20
2023-04-17T00:42:51.055Z,17.19
2023-04-17T00:43:51.069Z,17.20
2023-04-17T00:44:51.096Z,17.21
2023-04-17T00:45:51.170Z,17.21
2023-04-17T00:46:51.974Z,17.21
2023-04-17T00:47:51.283Z,17.20
2023-04-17T00:48:51.205Z,17.20
2023-04-17T00:49:51.313Z,17.20
2023-04-17T00:50:51.297Z,17.20
2023-04-17T00:51:51.314Z,17.20
2023-04-17T00:52:51.371Z,17.19
2023-04-17T00:53:51.475Z,17.19
2023-04-17T00:54:51.510Z,17.19
2023-04-17T00:55:51.492Z,17.20
2023-04-17T00:56:51.528Z,17.19
2023-04-17T00:57:51.573Z,17.20
2023-04-17T00:58:51.603Z,17.19
2023-04-17T00:59:51.637Z,17.19
2023-04-17T01:00:51.717Z,17.19
2023-04-17T01:01:51.853Z,17.19
2023-04-17T01:02:51.890Z,17.19
2023-04-17T01:03:51.961Z,17.18
2023-04-17T01:04:51.839Z,17.18
2023-04-17T01:05:51.884Z,17.18
2023-04-17T01:06:51.916Z,17.18
2023-04-17T01:07:51.963Z,17.18
2023-04-17T01:08:52.000Z,17.17
2023-04-17T01:09:52.051Z,17.17
2023-04-17T01:10:52.989Z,17.17
2023-04-17T01:11:52.110Z,17.18
2023-04-17T01:12:52.163Z,17.17
2023-04-17T01:13:52.213Z,17.18
2023-04-17T01:14:52.257Z,17.17
2023-04-17T01:15:52.289Z,17.17
2023-04-17T01:16:52.377Z,17.18
2023-04-17T01:17:52.427Z,17.17
2023-04-17T01:18:52.422Z,17.19
2023-04-17T01:19:52.477Z,17.19
2023-04-17T01:20:52.515Z,17.20
2023-04-17T01:21:52.561Z,17.20
2023-04-17T01:22:52.636Z,17.21
2023-04-17T01:23:52.733Z,17.21
2023-04-17T01:24:52.733Z,17.21
2023-04-17T01:25:52.812Z,17.22
2023-04-17T01:26:52.788Z,17.22
2023-04-17T01:27:52.824Z,17.22
2023-04-17T01:28:52.871Z,17.23
2023-04-17T01:29:52.909Z,17.22
2023-04-17T01:30:53.045Z,17.23
2023-04-17T01:31:52.994Z,17.24
2023-04-17T01:32:53.152Z,17.23
2023-04-17T01:33:53.089Z,17.23
2023-04-17T01:34:53.119Z,17.23
2023-04-17T01:35:53.167Z,17.23
2023-04-17T01:36:53.195Z,17.23
2023-04-17T01:37:53.235Z,17.24
2023-04-17T01:38:53.278Z,17.23
2023-04-17T01:39:53.359Z,17.24
2023-04-17T01:40:53.363Z,17.24
2023-04-17T01:41:53.402Z,17.25
2023-04-17T01:42:53.435Z,17.25
2023-04-17T01:43:53.535Z,17.26
2023-04-17T01:44:53.496Z,17.26
2023-04-17T01:45:53.591Z,17.26
2023-04-17T01:46:53.570Z,17.26
2023-04-17T01:47:53.624Z,17.26
2023-04-17T01:48:53.633Z,17.26
2023-04-17T01:49:53.669Z,17.26
2023-04-17T01:50:54.005Z,17.26
2023-04-17T01:51:53.740Z,17.26
2023-04-17T01:52:53.766Z,17.26
2023-04-17T01:53:53.799Z,17.27
2023-04-17T01:54:53.917Z,17.27
2023-04-17T01:55:53.959Z,17.28
2023-04-17T01:56:53.917Z,17.27
2023-04-17T01:57:53.955Z,17.28
2023-04-17T01:58:53.981Z,17.28
2023-04-17T01:59:54.018Z,17.27
2023-04-17T02:00:55.007Z,17.27
2023-04-17T02:01:54.239Z,17.28
2023-04-17T02:02:54.186Z,17.27
2023-04-17T02:03:54.433Z,17.27
2023-04-17T02:04:54.179Z,17.27
2023-04-17T02:05:54.208Z,17.27
2023-04-17T02:06:54.230Z,17.27
2023-04-17T02:07:54.253Z,17.27
2023-04-17T02:08:54.277Z,17.27
2023-04-17T02:09:54.308Z,17.27
2023-04-17T02:10:54.342Z,17.26
2023-04-17T02:11:54.368Z,17.26
2023-04-17T02:12:54.404Z,17.26
2023-04-17T02:13:54.438Z,17.27
2023-04-17T02:14:54.449Z,17.27
2023-04-17T02:15:54.541Z,17.27
2023-04-17T02:16:54.545Z,17.27
2023-04-17T02:17:54.565Z,17.27
2023-04-17T02:18:54.573Z,17.28
2023-04-17T02:19:54.615Z,17.27
2023-04-17T02:20:54.653Z,17.27
2023-04-17T02:21:54.666Z,17.28
2023-04-17T02:22:54.698Z,17.28
2023-04-17T02:23:54.728Z,17.28
2023-04-17T02:24:54.827Z,17.28
2023-04-17T02:25:54.790Z,17.28
2023-04-17T02:26:54.819Z,17.28
2023-04-17T02:27:54.839Z,17.28
2023-04-17T02:28:54.882Z,17.29
2023-04-17T02:29:54.899Z,17.28
2023-04-17T02:30:55.004Z,17.29
2023-04-17T02:31:54.953Z,17.29
2023-04-17T02:32:55.046Z,17.29
2023-04-17T02:33:55.004Z,17.29
2023-04-17T02:34:55.034Z,17.30
2023-04-17T02:35:55.061Z,17.30
2023-04-17T02:36:55.102Z,17.30
2023-04-17T02:37:55.105Z,17.30
2023-04-17T02:38:55.132Z,17.31
2023-04-17T02:39:55.236Z,17.31
2023-04-17T02:40:55.174Z,17.32
2023-04-17T02:41:55.201Z,17.31
2023-04-17T02:42:55.218Z,17.32
2023-04-17T02:43:55.241Z,17.32
2023-04-17T02:44:55.262Z,17.32
2023-04-17T02:45:55.299Z,17.33
2023-04-17T02:46:55.402Z,17.33
2023-04-17T02:47:55.475Z,17.33
2023-04-17T02:48:55.382Z,17.33
2023-04-17T02:49:55.407Z,17.34
2023-04-17T02:50:55.518Z,17.34
2023-04-17T02:51:55.475Z,17.34
2023-04-17T02:52:55.493Z,17.34
2023-04-17T02:53:55.521Z,17.34
2023-04-17T02:54:55.538Z,17.33
2023-04-17T02:55:55.696Z,17.34
2023-04-17T02:56:55.601Z,17.34
2023-04-17T02:57:55.619Z,17.34
2023-04-17T02:58:55.652Z,17.35
2023-04-17T02:59:55.677Z,17.35
2023-04-17T03:00:55.746Z,17.35
2023-04-17T03:01:55.815Z,17.35
2023-04-17T03:02:55.853Z,17.35
2023-04-17T03:03:55.978Z,17.34
2023-04-17T03:04:55.831Z,17.35
2023-04-17T03:05:56.526Z,17.35
2023-04-17T03:06:55.884Z,17.35
2023-04-17T03:07:55.976Z,17.35
2023-04-17T03:08:55.940Z,17.35
2023-04-17T03:09:56.009Z,17.35
2023-04-17T03:10:55.998Z,17.35
2023-04-17T03:11:56.034Z,17.36
2023-04-17T03:12:56.075Z,17.35
2023-04-17T03:13:56.078Z,17.36
2023-04-17T03:14:56.102Z,17.36
2023-04-17T03:15:56.133Z,17.36
2023-04-17T03:16:56.241Z,17.35
2023-04-17T03:17:56.207Z,17.36
2023-04-17T03:18:56.209Z,17.36
2023-04-17T03:19:56.248Z,17.36
2023-04-17T03:20:56.541Z,17.36
2023-04-17T03:21:56.285Z,17.37
2023-04-17T03:22:56.344Z,17.36
2023-04-17T03:23:56.346Z,17.36
2023-04-17T03:24:56.386Z,17.36
2023-04-17T03:25:56.408Z,17.36
2023-04-17T03:26:56.507Z,17.37
2023-04-17T03:27:56.599Z,17.36
2023-04-17T03:28:56.512Z,17.37
2023-04-17T03:29:56.554Z,17.36
2023-04-17T03:30:56.641Z,17.35
2023-04-17T03:31:56.657Z,17.36
2023-04-17T03:32:56.673Z,17.36
2023-04-17T03:33:56.654Z,17.37
2023-04-17T03:34:56.696Z,17.37
2023-04-17T03:35:56.718Z,17.37
2023-04-17T03:36:56.728Z,17.36
2023-04-17T03:37:56.750Z,17.37
2023-04-17T03:38:56.776Z,17.37
2023-04-17T03:39:56.806Z,17.37
2023-04-17T03:40:56.825Z,17.36
2023-04-17T03:41:56.920Z,17.37
2023-04-17T03:42:56.896Z,17.37
2023-04-17T03:43:57.543Z,17.37
2023-04-17T03:44:56.943Z,17.37
2023-04-17T03:45:56.989Z,17.37
2023-04-17T03:46:57.014Z,17.37
2023-04-17T03:47:57.065Z,17.37
2023-04-17T03:48:57.073Z,17.37
2023-04-17T03:49:57.101Z,17.37
2023-04-17T03:50:57.122Z,17.37
2023-04-17T03:51:57.150Z,17.37
2023-04-17T03:52:57.261Z,17.38
2023-04-17T03:53:57.191Z,17.37
2023-04-17T03:54:57.228Z,17.38
2023-04-17T03:55:57.312Z,17.38
2023-04-17T03:56:57.293Z,17.37
2023-04-17T03:57:58.044Z,17.37
2023-04-17T03:58:57.334Z,17.38
2023-04-17T03:59:57.387Z,17.38
2023-04-17T04:00:57.386Z,17.38
2023-04-17T04:01:57.512Z,17.38
2023-04-17T04:02:57.610Z,17.38
2023-04-17T04:03:57.591Z,17.39
2023-04-17T04:04:57.509Z,17.38
2023-04-17T04:05:57.526Z,17.38
2023-04-17T04:06:58.127Z,17.39
2023-04-17T04:07:57.599Z,17.38
2023-04-17T04:08:57.603Z,17.38
2023-04-17T04:09:57.635Z,17.39
2023-04-17T04:10:57.665Z,17.39
2023-04-17T04:11:57.687Z,17.39
2023-04-17T04:12:57.716Z,17.39
2023-04-17T04:13:57.745Z,17.39
2023-04-17T04:14:57.799Z,17.39
2023-04-17T04:15:57.846Z,17.39
2023-04-17T04:16:57.809Z,17.39
2023-04-17T04:17:57.943Z,17.39
2023-04-17T04:18:57.854Z,17.39
2023-04-17T04:19:57.889Z,17.39
2023-04-17T04:20:57.944Z,17.39
2023-04-17T04:21:57.940Z,17.39
2023-04-17T04:22:57.959Z,17.39
2023-04-17T04:23:58.546Z,17.39
2023-04-17T04:24:58.075Z,17.39
2023-04-17T04:25:58.071Z,17.39
2023-04-17T04:26:58.075Z,17.39
2023-04-17T04:27:58.098Z,17.39
2023-04-17T04:28:58.120Z,17.40
2023-04-17T04:29:58.141Z,17.39
2023-04-17T04:30:58.214Z,17.40
2023-04-17T04:31:58.318Z,17.40
2023-04-17T04:32:58.258Z,17.40
2023-04-17T04:33:58.332Z,17.39
2023-04-17T04:34:58.340Z,17.40
2023-04-17T04:35:58.321Z,17.40
2023-04-17T04:36:58.330Z,17.40
2023-04-17T04:37:58.361Z,17.40
2023-04-17T04:38:58.400Z,17.40
2023-04-17T04:39:58.410Z,17.40
2023-04-17T04:40:58.433Z,17.40
2023-04-17T04:41:58.532Z,17.41
2023-04-17T04:42:58.483Z,17.41
2023-04-17T04:43:58.494Z,17.40
2023-04-17T04:44:58.523Z,17.41
2023-04-17T04:45:58.556Z,17.40
2023-04-17T04:46:59.687Z,17.40
2023-04-17T04:47:58.634Z,17.40
2023-04-17T04:48:58.615Z,17.40
2023-04-17T04:49:58.709Z,17.40
2023-04-17T04:50:58.677Z,17.40
2023-04-17T04:51:59.069Z,17.40
2023-04-17T04:52:58.723Z,17.40
2023-04-17T04:53:58.734Z,17.40
2023-04-17T04:54:58.759Z,17.40
2023-04-17T04:55:58.795Z,17.39
2023-04-17T04:56:58.817Z,17.40
2023-04-17T04:57:58.921Z,17.39
2023-04-17T04:58:58.864Z,17.40
2023-04-17T04:59:58.898Z,17.39
2023-04-17T05:00:58.972Z,17.39
2023-04-17T05:01:59.061Z,17.40
2023-04-17T05:02:59.234Z,17.40
2023-04-17T05:03:59.190Z,17.40
2023-04-17T05:04:59.134Z,17.40
2023-04-17T05:05:59.070Z,17.40
2023-04-17T05:06:59.096Z,17.40
2023-04-17T05:07:59.130Z,17.41
2023-04-17T05:08:59.155Z,17.40
2023-04-17T05:09:59.185Z,17.40
2023-04-17T05:10:59.225Z,17.40
2023-04-17T05:11:59.250Z,17.40
2023-04-17T05:12:59.292Z,17.41
2023-04-17T05:13:59.278Z,17.41
2023-04-17T05:14:59.306Z,17.42
2023-04-17T05:16:01.521Z,17.41
2023-04-17T05:17:00.364Z,17.41
2023-04-17T05:17:59.495Z,17.41
2023-04-17T05:18:59.391Z,17.40
2023-04-17T05:19:59.459Z,17.39
2023-04-17T05:20:59.421Z,17.37
2023-04-17T05:21:59.434Z,17.36
2023-04-17T05:22:59.455Z,17.38
2023-04-17T05:23:59.532Z,17.42
2023-04-17T05:24:59.466Z,17.43
2023-04-17T05:25:59.480Z,17.42
2023-04-17T05:26:59.494Z,17.42
2023-04-17T05:28:00.048Z,17.39
2023-04-17T05:28:59.515Z,17.38
2023-04-17T05:29:59.538Z,17.38
2023-04-17T05:30:59.569Z,17.39
2023-04-17T05:31:59.610Z,17.38
2023-04-17T05:33:01.162Z,17.37
2023-04-17T05:33:59.609Z,17.40
2023-04-17T05:35:00.583Z,17.42
2023-04-17T05:35:59.619Z,17.45
2023-04-17T05:36:59.633Z,17.49
2023-04-17T05:37:59.717Z,17.53
2023-04-17T05:38:59.636Z,17.57
2023-04-17T05:40:00.635Z,17.61
2023-04-17T05:40:59.652Z,17.65
2023-04-17T05:42:00.600Z,17.69
2023-04-17T05:42:59.791Z,17.73
2023-04-17T05:43:59.838Z,17.77
2023-04-17T05:44:59.897Z,17.80
2023-04-17T05:45:59.957Z,17.83
2023-04-17T05:47:00.004Z,17.87
2023-04-17T05:48:00.152Z,17.92
2023-04-17T05:49:00.138Z,17.93
2023-04-17T05:50:01.091Z,17.93
2023-04-17T05:51:00.169Z,17.95
2023-04-17T05:52:00.239Z,17.97
2023-04-17T05:53:00.266Z,17.98
2023-04-17T05:54:01.338Z,17.99
2023-04-17T05:55:02.107Z,18.00
2023-04-17T05:56:00.324Z,18.01
2023-04-17T05:57:00.338Z,18.01
2023-04-17T05:58:02.353Z,18.01
2023-04-17T05:59:01.272Z,18.00
2023-04-17T06:00:00.259Z,17.97
2023-04-17T06:01:00.257Z,17.97
2023-04-17T06:02:00.487Z,17.96
2023-04-17T06:03:00.415Z,17.96
2023-04-17T06:04:01.635Z,17.97
2023-04-17T06:05:00.415Z,17.99
2023-04-17T06:06:00.293Z,18.02
2023-04-17T06:07:01.125Z,18.04
2023-04-17T06:08:00.244Z,18.07
2023-04-17T06:09:00.247Z,18.08
2023-04-17T06:10:00.332Z,18.11
2023-04-17T06:11:00.254Z,18.12
2023-04-17T06:12:00.238Z,18.15
2023-04-17T06:13:00.251Z,18.17
2023-04-17T06:14:00.224Z,18.17
2023-04-17T06:15:00.227Z,18.19
2023-04-17T06:16:00.231Z,18.26
2023-04-17T06:17:00.246Z,18.32
2023-04-17T06:18:00.305Z,18.30
2023-04-17T06:19:00.244Z,18.30
2023-04-17T06:20:00.252Z,18.31
2023-04-17T06:21:00.255Z,18.32
2023-04-17T06:22:00.274Z,18.32
2023-04-17T06:23:00.283Z,18.30
2023-04-17T06:24:00.301Z,18.29
2023-04-17T06:25:00.314Z,18.28
2023-04-17T06:26:01.124Z,18.27
2023-04-17T06:27:00.367Z,18.25
2023-04-17T06:28:00.372Z,18.25
2023-04-17T06:29:00.400Z,18.23
2023-04-17T06:30:00.438Z,18.22
2023-04-17T06:31:00.531Z,18.21
2023-04-17T06:32:01.455Z,18.19
2023-04-17T06:33:00.547Z,18.19
2023-04-17T06:34:00.475Z,18.18
2023-04-17T06:35:00.443Z,18.17
2023-04-17T06:36:00.438Z,18.16
2023-04-17T06:37:00.451Z,18.14
2023-04-17T06:38:01.112Z,18.15
2023-04-17T06:39:00.444Z,18.14
2023-04-17T06:40:00.446Z,18.14
2023-04-17T06:41:00.452Z,18.14
2023-04-17T06:42:00.460Z,18.14
2023-04-17T06:43:00.436Z,18.13
2023-04-17T06:44:00.460Z,18.14
2023-04-17T06:45:00.486Z,18.14
2023-04-17T06:46:00.587Z,18.14
2023-04-17T06:47:02.785Z,18.13
2023-04-17T06:48:01.655Z,18.13
2023-04-17T06:49:00.550Z,18.13
2023-04-17T06:50:00.549Z,18.12
2023-04-17T06:51:00.548Z,18.12
2023-04-17T06:52:00.574Z,18.12
2023-04-17T06:53:00.558Z,18.11
2023-04-17T06:54:00.553Z,18.12
2023-04-17T06:55:00.620Z,18.12
2023-04-17T06:56:00.605Z,18.11
2023-04-17T06:57:00.558Z,18.11
2023-04-17T06:58:00.677Z,18.10
2023-04-17T06:59:02.423Z,18.11
2023-04-17T07:00:00.808Z,18.11
2023-04-17T07:01:00.704Z,18.11
2023-04-17T07:02:00.840Z,18.11
2023-04-17T07:03:00.916Z,18.11
2023-04-17T07:04:00.931Z,18.11
2023-04-17T07:05:00.928Z,18.11
2023-04-17T07:06:01.038Z,18.10
2023-04-17T07:07:01.051Z,18.11
2023-04-17T07:08:02.163Z,18.11
2023-04-17T07:09:01.176Z,18.10
2023-04-17T07:10:01.247Z,18.10
2023-04-17T07:11:01.282Z,18.11
2023-04-17T07:12:01.341Z,18.11
2023-04-17T07:13:02.206Z,18.11
2023-04-17T07:14:01.475Z,18.11
2023-04-17T07:15:01.616Z,18.11
2023-04-17T07:16:01.679Z,18.11
2023-04-17T07:17:01.628Z,18.11
2023-04-17T07:18:01.738Z,18.12
2023-04-17T07:19:01.730Z,18.11
2023-04-17T07:20:01.786Z,18.12
2023-04-17T07:21:01.838Z,18.12
2023-04-17T07:22:01.896Z,18.12
2023-04-17T07:23:01.941Z,18.12
2023-04-17T07:24:02.547Z,18.12
2023-04-17T07:25:02.038Z,18.13
2023-04-17T07:26:03.044Z,18.14
2023-04-17T07:27:02.071Z,18.15
2023-04-17T07:28:03.939Z,18.15
2023-04-17T07:29:02.095Z,18.16
2023-04-17T07:30:02.168Z,18.15
2023-04-17T07:31:02.223Z,18.16
2023-04-17T07:32:03.335Z,18.16
2023-04-17T07:33:02.222Z,18.16
2023-04-17T07:34:02.156Z,18.17
2023-04-17T07:35:02.195Z,18.16
2023-04-17T07:36:02.177Z,18.17
2023-04-17T07:37:02.185Z,18.19
2023-04-17T07:38:03.045Z,18.20
2023-04-17T07:39:03.116Z,18.22
2023-04-17T07:40:03.123Z,18.24
2023-04-17T07:41:03.129Z,18.27
2023-04-17T07:42:02.164Z,18.30
2023-04-17T07:43:02.152Z,18.34
2023-04-17T07:44:02.164Z,18.38
2023-04-17T07:45:02.147Z,18.41
2023-04-17T07:46:02.150Z,18.44
2023-04-17T07:47:02.257Z,18.47
2023-04-17T07:48:02.177Z,18.51
2023-04-17T07:49:02.137Z,18.54
2023-04-17T07:50:02.213Z,18.57
2023-04-17T07:51:02.169Z,18.59
2023-04-17T07:52:02.157Z,18.61
2023-04-17T07:53:02.196Z,18.64
2023-04-17T07:54:02.236Z,18.67
2023-04-17T07:55:02.289Z,18.71
2023-04-17T07:56:02.353Z,18.73
2023-04-17T07:57:02.441Z,18.74
2023-04-17T07:58:02.433Z,18.76
2023-04-17T07:59:02.482Z,18.78
2023-04-17T08:00:03.126Z,18.80
2023-04-17T08:01:02.582Z,18.83
2023-04-17T08:02:02.790Z,18.85
2023-04-17T08:03:02.823Z,18.87
2023-04-17T08:04:02.988Z,18.89
2023-04-17T08:05:02.876Z,18.91
2023-04-17T08:06:02.702Z,18.94
2023-04-17T08:07:02.740Z,18.95
2023-04-17T08:08:03.630Z,18.98
2023-04-17T08:09:03.145Z,19.00
2023-04-17T08:10:03.629Z,19.03
2023-04-17T08:11:02.835Z,19.06
2023-04-17T08:12:02.849Z,19.09
2023-04-17T08:13:02.884Z,19.09
2023-04-17T08:14:02.910Z,19.08
2023-04-17T08:15:02.951Z,19.06
2023-04-17T08:16:02.986Z,19.04
2023-04-17T08:17:03.021Z,19.00
2023-04-17T08:18:03.047Z,18.97
2023-04-17T08:19:03.016Z,18.97
2023-04-17T08:20:03.030Z,18.96
2023-04-17T08:21:03.037Z,18.94
2023-04-17T08:22:03.040Z,18.95
2023-04-17T08:23:03.065Z,18.93
2023-04-17T08:24:03.057Z,18.90
2023-04-17T08:25:03.096Z,18.88
2023-04-17T08:26:03.097Z,18.86
2023-04-17T08:27:03.218Z,18.85
2023-04-17T08:28:03.223Z,18.83
2023-04-17T08:29:03.249Z,18.82
2023-04-17T08:30:03.326Z,18.82
2023-04-17T08:31:03.365Z,18.81
2023-04-17T08:32:13.914Z,18.81
2023-04-17T08:33:04.388Z,18.79
2023-04-17T08:34:13.653Z,18.77
2023-04-17T08:35:03.344Z,18.76
2023-04-17T08:36:04.287Z,18.75
2023-04-17T08:37:03.279Z,18.75
2023-04-17T08:38:03.288Z,18.75
2023-04-17T08:39:03.245Z,18.75
2023-04-17T08:40:03.246Z,18.76
2023-04-17T08:41:03.233Z,18.76
2023-04-17T08:42:03.204Z,18.77
2023-04-17T08:43:03.189Z,18.77
2023-04-17T08:44:03.169Z,18.79
2023-04-17T08:45:03.152Z,18.79
2023-04-17T08:46:03.169Z,18.79
2023-04-17T08:47:03.104Z,18.80
2023-04-17T08:48:03.144Z,18.81
2023-04-17T08:49:03.123Z,18.82
2023-04-17T08:50:03.733Z,18.84
2023-04-17T08:51:03.159Z,18.84
2023-04-17T08:52:03.137Z,18.85
2023-04-17T08:53:03.152Z,18.87
2023-04-17T08:54:03.151Z,18.88
2023-04-17T08:55:04.229Z,18.90
2023-04-17T08:56:03.766Z,18.93
2023-04-17T08:57:03.186Z,18.94
2023-04-17T08:58:03.210Z,18.96
2023-04-17T08:59:03.205Z,18.98
2023-04-17T09:00:03.204Z,18.99
2023-04-17T09:01:03.203Z,19.00
2023-04-17T09:02:03.344Z,19.00
2023-04-17T09:03:03.339Z,19.01
2023-04-17T09:04:03.383Z,19.02
2023-04-17T09:05:03.290Z,19.04
2023-04-17T09:06:03.289Z,19.05
2023-04-17T09:07:03.202Z,19.06
2023-04-17T09:08:03.197Z,19.07
2023-04-17T09:09:03.281Z,19.08
2023-04-17T09:10:03.181Z,19.08
2023-04-17T09:11:03.185Z,19.08
2023-04-17T09:12:03.196Z,19.09
2023-04-17T09:13:03.182Z,19.09
2023-04-17T09:14:03.195Z,19.10
2023-04-17T09:15:03.193Z,19.09
2023-04-17T09:16:03.231Z,19.11
2023-04-17T09:17:03.196Z,19.11
2023-04-17T09:18:03.295Z,19.10
2023-04-17T09:19:03.172Z,19.10
2023-04-17T09:20:03.178Z,19.09
2023-04-17T09:21:03.187Z,19.09
2023-04-17T09:22:03.293Z,19.09
2023-04-17T09:23:03.210Z,19.07
2023-04-17T09:24:03.216Z,19.05
2023-04-17T09:25:03.223Z,19.04
2023-04-17T09:26:03.250Z,19.02
2023-04-17T09:27:04.235Z,18.99
2023-04-17T09:28:03.226Z,18.98
2023-04-17T09:29:03.217Z,18.95
2023-04-17T09:30:03.186Z,18.92
2023-04-17T09:31:04.210Z,18.89
2023-04-17T09:32:03.231Z,18.87
2023-04-17T09:33:03.182Z,18.85
2023-04-17T09:34:03.118Z,18.82
2023-04-17T09:35:03.106Z,18.81
2023-04-17T09:36:03.102Z,18.77
2023-04-17T09:37:03.230Z,18.75
2023-04-17T09:38:03.072Z,18.73
2023-04-17T09:39:03.056Z,18.71
2023-04-17T09:40:03.671Z,18.69
2023-04-17T09:41:03.680Z,18.68
2023-04-17T09:42:03.618Z,18.67
2023-04-17T09:43:03.202Z,18.65
2023-04-17T09:44:03.369Z,18.64
2023-04-17T09:45:03.313Z,18.63
2023-04-17T09:46:03.369Z,18.61
2023-04-17T09:47:03.581Z,18.60
2023-04-17T09:48:03.551Z,18.59
2023-04-17T09:49:03.551Z,18.59
2023-04-17T09:50:03.617Z,18.58
2023-04-17T09:51:04.181Z,18.57
2023-04-17T09:52:03.759Z,18.57
2023-04-17T09:53:03.815Z,18.55
2023-04-17T09:54:03.882Z,18.54
2023-04-17T09:55:03.931Z,18.53
2023-04-17T09:56:03.987Z,18.53
2023-04-17T09:57:04.685Z,18.52
2023-04-17T09:58:04.080Z,18.51
2023-04-17T09:59:04.207Z,18.50
2023-04-17T10:00:04.259Z,18.49
2023-04-17T10:01:04.255Z,18.48
2023-04-17T10:02:04.341Z,18.47
2023-04-17T10:03:04.500Z,18.47
2023-04-17T10:04:05.455Z,18.47
2023-04-17T10:05:04.455Z,18.46
2023-04-17T10:06:05.207Z,18.45
2023-04-17T10:07:04.571Z,18.44
2023-04-17T10:08:04.649Z,18.44
2023-04-17T10:09:04.692Z,18.43
2023-04-17T10:10:04.762Z,18.43
2023-04-17T10:11:04.800Z,18.43
2023-04-17T10:12:05.790Z,18.42
2023-04-17T10:13:04.850Z,18.41
2023-04-17T10:14:04.794Z,18.41
2023-04-17T10:15:04.867Z,18.40
2023-04-17T10:16:04.997Z,18.39
2023-04-17T10:17:05.683Z,18.39
2023-04-17T10:18:04.820Z,18.39
2023-04-17T10:19:04.731Z,18.39
2023-04-17T10:20:04.778Z,18.38
2023-04-17T10:21:06.587Z,18.38
2023-04-17T10:22:04.839Z,18.37
2023-04-17T10:23:04.885Z,18.37
2023-04-17T10:24:04.941Z,18.37
2023-04-17T10:25:05.170Z,18.36
2023-04-17T10:26:05.190Z,18.36
2023-04-17T10:27:06.466Z,18.36
2023-04-17T10:28:05.294Z,18.36
2023-04-17T10:29:05.478Z,18.34
2023-04-17T10:30:05.395Z,18.34
2023-04-17T10:31:05.453Z,18.34
2023-04-17T10:32:05.558Z,18.33
2023-04-17T10:33:06.558Z,18.34
2023-04-17T10:34:06.189Z,18.34
2023-04-17T10:35:05.699Z,18.34
2023-04-17T10:36:05.704Z,18.34
2023-04-17T10:37:05.832Z,18.35
2023-04-17T10:38:05.801Z,18.34
2023-04-17T10:39:05.840Z,18.34
2023-04-17T10:40:05.888Z,18.34
2023-04-17T10:41:05.936Z,18.33
2023-04-17T10:42:05.989Z,18.32
2023-04-17T10:43:05.996Z,18.31
2023-04-17T10:44:06.044Z,18.31
2023-04-17T10:45:06.061Z,18.30
2023-04-17T10:46:06.173Z,18.30
2023-04-17T10:47:06.109Z,18.30
2023-04-17T10:48:06.202Z,18.29
2023-04-17T10:49:06.180Z,18.28
2023-04-17T10:50:06.208Z,18.28
2023-04-17T10:51:06.241Z,18.28
2023-04-17T10:52:06.252Z,18.27
2023-04-17T10:53:06.300Z,18.27
2023-04-17T10:54:06.291Z,18.28
2023-04-17T10:55:06.318Z,18.27
2023-04-17T10:56:06.346Z,18.28
2023-04-17T10:57:06.436Z,18.27
2023-04-17T10:58:06.424Z,18.27
2023-04-17T10:59:06.474Z,18.27
2023-04-17T11:00:07.205Z,18.28
2023-04-17T11:01:06.549Z,18.28
2023-04-17T11:02:06.612Z,18.27
2023-04-17T11:03:06.716Z,18.28
2023-04-17T11:04:06.645Z,18.28
2023-04-17T11:05:06.748Z,18.28
2023-04-17T11:06:06.919Z,18.27
2023-04-17T11:07:06.809Z,18.28
2023-04-17T11:08:07.800Z,18.27
2023-04-17T11:09:06.890Z,18.27
2023-04-17T11:10:06.804Z,18.27
2023-04-17T11:11:06.797Z,18.27
2023-04-17T11:12:06.794Z,18.27
2023-04-17T11:13:06.808Z,18.26
2023-04-17T11:14:06.798Z,18.26
2023-04-17T11:15:06.791Z,18.26
2023-04-17T11:16:06.798Z,18.25
2023-04-17T11:17:06.866Z,18.26
2023-04-17T11:18:06.919Z,18.26
2023-04-17T11:19:06.944Z,18.26
2023-04-17T11:20:06.987Z,18.26
2023-04-17T11:21:07.036Z,18.26
2023-04-17T11:22:07.710Z,18.26
2023-04-17T11:23:07.088Z,18.26
2023-04-17T11:24:07.109Z,18.26
2023-04-17T11:25:07.126Z,18.26
2023-04-17T11:26:07.164Z,18.25
2023-04-17T11:27:07.201Z,18.24
2023-04-17T11:28:07.293Z,18.24
2023-04-17T11:29:07.216Z,18.24
2023-04-17T11:30:07.228Z,18.24
2023-04-17T11:31:07.260Z,18.23
2023-04-17T11:32:07.222Z,18.24
2023-04-17T11:33:07.310Z,18.23
2023-04-17T11:34:07.317Z,18.23
2023-04-17T11:35:07.362Z,18.23
2023-04-17T11:36:08.217Z,18.22
2023-04-17T11:37:07.418Z,18.22
2023-04-17T11:38:07.444Z,18.22
2023-04-17T11:39:07.484Z,18.22
2023-04-17T11:40:07.741Z,18.22
2023-04-17T11:41:07.522Z,18.22
2023-04-17T11:42:07.550Z,18.21
2023-04-17T11:43:07.589Z,18.21
2023-04-17T11:44:07.625Z,18.21
2023-04-17T11:45:07.641Z,18.21
2023-04-17T11:46:07.860Z,18.21
2023-04-17T11:47:07.684Z,18.21
2023-04-17T11:48:07.680Z,18.22
2023-04-17T11:49:07.696Z,18.22
2023-04-17T11:50:07.716Z,18.22
2023-04-17T11:51:07.694Z,18.22
2023-04-17T11:52:07.713Z,18.21
2023-04-17T11:53:07.821Z,18.23
2023-04-17T11:54:07.770Z,18.23
2023-04-17T11:55:07.743Z,18.23
2023-04-17T11:56:07.761Z,18.22
2023-04-17T11:57:07.764Z,18.23
2023-04-17T11:58:07.751Z,18.24
2023-04-17T11:59:07.749Z,18.23
2023-04-17T12:00:07.758Z,18.24
2023-04-17T12:01:07.756Z,18.24
2023-04-17T12:02:07.974Z,18.25
2023-04-17T12:03:07.930Z,18.26
2023-04-17T12:04:07.853Z,18.26
2023-04-17T12:05:08.010Z,18.27
2023-04-17T12:06:07.889Z,18.28
2023-04-17T12:07:08.285Z,18.28
2023-04-17T12:08:07.821Z,18.27
2023-04-17T12:09:07.827Z,18.28
2023-04-17T12:10:07.826Z,18.28
2023-04-17T12:11:07.832Z,18.28
2023-04-17T12:12:08.112Z,18.28
2023-04-17T12:13:07.849Z,18.28
2023-04-17T12:14:07.850Z,18.28
2023-04-17T12:15:07.852Z,18.27
2023-04-17T12:16:07.899Z,18.27
2023-04-17T12:17:07.872Z,18.27
2023-04-17T12:18:07.935Z,18.27
2023-04-17T12:19:07.888Z,18.27
2023-04-17T12:20:07.862Z,18.27
2023-04-17T12:21:07.862Z,18.27
2023-04-17T12:22:07.893Z,18.27
2023-04-17T12:23:07.923Z,18.27
2023-04-17T12:24:07.941Z,18.26
2023-04-17T12:25:07.957Z,18.26
2023-04-17T12:26:07.966Z,18.25
2023-04-17T12:27:07.980Z,18.25
2023-04-17T12:28:08.108Z,18.25
2023-04-17T12:29:07.980Z,18.24
2023-04-17T12:30:07.995Z,18.24
2023-04-17T12:31:07.974Z,18.23
2023-04-17T12:32:08.143Z,18.23
2023-04-17T12:33:08.860Z,18.23
2023-04-17T12:34:07.992Z,18.23
2023-04-17T12:35:08.012Z,18.23
2023-04-17T12:36:08.017Z,18.22
2023-04-17T12:37:08.014Z,18.22
2023-04-17T12:38:08.019Z,18.21
2023-04-17T12:39:08.041Z,18.21
2023-04-17T12:40:08.021Z,18.21
2023-04-17T12:41:08.035Z,18.20
2023-04-17T12:42:08.034Z,18.20
2023-04-17T12:43:08.046Z,18.21
2023-04-17T12:44:08.041Z,18.21
2023-04-17T12:45:08.061Z,18.20
2023-04-17T12:46:08.108Z,18.20
2023-04-17T12:47:08.098Z,18.20
2023-04-17T12:48:08.083Z,18.19
2023-04-17T12:49:08.092Z,18.20
2023-04-17T12:50:08.148Z,18.21
2023-04-17T12:51:08.109Z,18.20
2023-04-17T12:52:08.118Z,18.20
2023-04-17T12:53:08.127Z,18.20